Time;durP1;ratioP1;P1;durP2;ratioP2;P2;SDS_P1;SDS_P2;PMS_P1;PMS_P2;Temp;Humidity;BMP_temperature;BMP_pressure;BME280_temperature;BME280_humidity;BME280_pressure;Samples;Min_cycle;Max_cycle;Signal;HPM_P1;HPM_P2
2022/12/30 00:02:12;;;;;;;3.20;0.75;;;8.30;99.90;;;8.13;100.00;100607.31;5188573;28;20050;-83
2022/12/30 00:04:44;;;;;;;4.22;0.80;;;8.20;99.90;;;8.11;100.00;100611.56;5173377;28;20152;-83
2022/12/30 00:07:18;;;;;;;3.22;1.00;;;8.20;99.90;;;8.09;100.00;100621.00;5202891;28;20112;-80
2022/12/30 00:09:51;;;;;;;0.90;0.73;;;8.20;99.90;;;8.05;100.00;100621.69;5191361;28;20637;-84
2022/12/30 00:35:14;;;;;;;3.10;0.98;;;7.80;99.90;;;7.65;100.00;100652.81;5180302;28;20117;-83
2022/12/30 00:37:46;;;;;;;1.27;0.85;;;7.80;99.90;;;7.61;100.00;100652.66;5194435;28;20511;-83
2022/12/30 00:40:19;;;;;;;2.33;1.00;;;7.70;99.90;;;7.57;100.00;100648.19;5198964;28;20050;-83
2022/12/30 00:43:09;;;;;;;2.33;1.02;;;7.70;99.90;;;7.52;100.00;100651.41;5195708;28;20034;-84
2022/12/30 00:45:43;;;;;;;4.38;1.17;;;7.60;99.90;;;7.48;100.00;100655.53;5198293;28;20056;-86
2022/12/30 00:56:47;;;;;;;6.03;1.27;;;7.60;99.90;;;7.43;100.00;100664.81;5201594;28;20046;-84
2022/12/30 00:59:19;;;;;;;2.50;0.90;;;7.60;99.90;;;7.43;100.00;100651.84;5187852;28;20435;-85
2022/12/30 01:01:51;;;;;;;3.30;1.00;;;7.60;99.90;;;7.45;100.00;100654.53;5197635;28;20056;-83
2022/12/30 01:04:23;;;;;;;2.97;0.93;;;7.60;99.90;;;7.44;100.00;100652.75;5209398;28;20038;-84
2022/12/30 01:06:56;;;;;;;5.45;1.00;;;7.60;99.90;;;7.40;100.00;100645.66;5191120;28;20042;-83
2022/12/30 01:09:28;;;;;;;3.65;1.02;;;7.50;99.90;;;7.41;100.00;100656.09;5195956;28;20053;-83
2022/12/30 01:12:08;;;;;;;3.33;0.95;;;7.60;99.90;;;7.41;100.00;100653.50;5214351;28;20041;-84
2022/12/30 01:14:43;;;;;;;6.10;1.00;;;7.50;99.90;;;7.41;100.00;100661.28;5218489;28;20056;-84
2022/12/30 01:17:18;;;;;;;5.65;1.20;;;7.50;99.90;;;7.43;100.00;100662.22;5216393;28;20038;-84
2022/12/30 01:19:50;;;;;;;2.83;0.90;;;7.50;99.90;;;7.42;100.00;100659.56;5206074;28;20045;-84
2022/12/30 01:22:22;;;;;;;1.10;0.63;;;7.50;99.90;;;7.42;100.00;100675.13;5193854;28;20076;-85
2022/12/30 01:24:54;;;;;;;3.08;0.93;;;7.50;99.90;;;7.40;100.00;100674.19;5191278;28;20052;-84
2022/12/30 01:27:28;;;;;;;3.95;0.90;;;7.50;99.90;;;7.37;100.00;100669.75;5179636;28;20132;-83
2022/12/30 01:30:00;;;;;;;3.20;0.90;;;7.40;99.90;;;7.33;100.00;100671.31;5195968;28;20057;-85
2022/12/30 01:32:33;;;;;;;1.30;0.65;;;7.40;99.90;;;7.33;100.00;100676.50;5177024;28;20082;-83
2022/12/30 01:35:06;;;;;;;3.28;1.00;;;7.40;99.90;;;7.33;100.00;100675.59;5193154;28;20056;-83
2022/12/30 01:37:38;;;;;;;2.17;0.90;;;7.40;99.90;;;7.33;100.00;100673.00;5195121;28;20041;-84
2022/12/30 01:40:12;;;;;;;2.50;0.77;;;7.40;99.90;;;7.33;100.00;100673.91;5193077;28;20042;-83
2022/12/30 01:42:45;;;;;;;1.80;0.73;;;7.40;99.90;;;7.35;100.00;100674.84;5194489;28;20057;-83
2022/12/30 01:45:20;;;;;;;3.45;0.82;;;7.40;99.90;;;7.35;100.00;100669.66;5177185;28;20053;-83
2022/12/30 01:47:58;;;;;;;7.38;1.17;;;7.50;99.90;;;7.42;100.00;100681.19;5193414;28;20042;-83
2022/12/30 01:50:34;;;;;;;2.58;1.05;;;7.50;99.90;;;7.44;100.00;100673.50;5195508;28;20060;-83
2022/12/30 01:53:11;;;;;;;3.75;1.48;;;7.60;99.90;;;7.52;100.00;100674.72;5195481;28;20053;-83
2022/12/30 01:55:49;;;;;;;3.92;1.00;;;7.60;99.90;;;7.54;100.00;100670.50;5192806;28;20056;-83
2022/12/30 01:58:30;;;;;;;4.40;1.30;;;7.60;99.90;;;7.56;100.00;100671.44;5193180;28;20041;-83
2022/12/30 02:01:02;;;;;;;4.57;1.05;;;7.70;99.90;;;7.59;100.00;100674.19;5176983;28;20045;-83
2022/12/30 02:03:38;;;;;;;3.10;0.95;;;7.70;99.90;;;7.59;100.00;100682.84;5194227;28;20070;-83
2022/12/30 02:06:10;;;;;;;3.10;0.85;;;7.70;99.90;;;7.56;100.00;100689.59;5192903;28;20046;-83
2022/12/30 02:08:42;;;;;;;2.65;1.05;;;7.70;99.90;;;7.54;100.00;100686.06;5175704;28;20050;-83
2022/12/30 02:11:14;;;;;;;2.17;0.90;;;7.70;99.90;;;7.49;100.00;100688.44;5176478;28;20046;-84
2022/12/30 02:13:48;;;;;;;2.67;0.73;;;7.60;99.90;;;7.46;100.00;100690.91;5174965;28;20054;-83
2022/12/30 02:16:45;;;;;;;3.17;0.85;;;7.60;99.90;;;7.40;100.00;100695.81;5193213;28;20045;-86
2022/12/30 02:20:06;;;;;;;2.80;0.73;;;7.50;99.90;;;7.33;100.00;100694.66;5174737;28;20088;-84
2022/12/30 02:23:02;;;;;;;3.42;1.00;;;7.40;99.90;;;7.27;100.00;100696.94;5175534;28;20045;-85
2022/12/30 02:25:57;;;;;;;1.70;1.10;;;7.40;99.90;;;7.20;100.00;100694.91;5177920;28;20050;-84
2022/12/30 02:29:27;;;;;;;4.57;0.93;;;7.40;99.90;;;7.10;100.00;100697.84;5176267;28;20041;-83
2022/12/30 02:32:10;;;;;;;5.30;1.20;;;7.30;99.90;;;7.05;100.00;100687.28;5174953;28;20050;-83
2022/12/30 02:34:54;;;;;;;3.17;1.13;;;7.20;99.90;;;6.99;100.00;100686.13;5177169;28;20049;-83
2022/12/30 02:37:35;;;;;;;4.57;1.15;;;7.20;99.90;;;6.90;100.00;100672.69;5176867;28;20054;-83
2022/12/30 02:40:15;;;;;;;3.58;1.63;;;7.10;99.90;;;6.81;100.00;100675.75;5194720;28;20112;-82
2022/12/30 02:45:51;;;;;;;4.75;1.00;;;7.00;99.90;;;6.71;100.00;100678.72;5182232;28;20140;-82
2022/12/30 02:48:28;;;;;;;4.38;1.00;;;6.90;99.90;;;6.68;100.00;100682.03;5183007;28;20056;-83
2022/12/30 02:53:53;;;;;;;4.25;1.10;;;6.80;99.90;;;6.64;100.00;100695.66;5201190;28;20042;-83
2022/12/30 02:56:25;;;;;;;3.70;0.77;;;6.80;99.90;;;6.64;100.00;100694.78;5183942;28;20053;-83
2022/12/30 03:05:03;;;;;;;3.95;1.00;;;6.80;99.90;;;6.59;100.00;100704.94;5172737;28;20467;-84
2022/12/30 03:07:46;;;;;;;3.15;0.95;;;6.80;99.90;;;6.52;100.00;100698.56;5202899;28;20304;-82
2022/12/30 03:13:23;;;;;;;5.10;1.15;;;6.70;99.90;;;6.52;100.00;100697.66;5195311;28;20065;-82
2022/12/30 03:16:05;;;;;;;3.60;0.90;;;6.70;99.90;;;6.55;100.00;100699.50;5196435;28;20111;-84
2022/12/30 03:18:38;;;;;;;4.13;1.25;;;6.70;99.90;;;6.59;100.00;100697.16;5194438;28;20042;-82
2022/12/30 03:21:12;;;;;;;4.13;0.90;;;6.70;99.90;;;6.56;100.00;100697.00;5196661;28;20054;-82
2022/12/30 03:29:37;;;;;;;2.40;0.85;;;6.80;99.90;;;6.64;100.00;100702.53;5178846;28;20066;-83
2022/12/30 03:32:12;;;;;;;3.42;1.13;;;6.80;99.90;;;6.64;100.00;100695.66;5196920;28;20068;-83
2022/12/30 03:34:45;;;;;;;;;;;6.80;99.90;;;6.63;100.00;100699.06;5181651;28;20484;-83
2022/12/30 03:37:24;;;;;;;3.35;1.00;;;6.80;99.90;;;6.62;100.00;100699.88;5179054;28;19921;-83
2022/12/30 03:40:01;;;;;;;2.15;0.77;;;6.80;99.90;;;6.63;100.00;100701.66;5197295;28;20038;-84
2022/12/30 03:42:34;;;;;;;6.68;1.25;;;6.80;99.90;;;6.61;100.00;100700.69;5184040;28;20054;-82
2022/12/30 03:45:07;;;;;;;3.28;1.13;;;6.80;99.90;;;6.61;100.00;100703.28;5176272;28;20039;-83
2022/12/30 03:47:39;;;;;;;5.75;1.10;;;6.80;99.90;;;6.59;100.00;100702.34;5158022;28;20054;-82
2022/12/30 03:50:12;;;;;;;4.15;1.13;;;6.80;99.90;;;6.59;100.00;100693.69;5175734;28;20501;-82
2022/12/30 03:52:45;;;;;;;3.50;0.90;;;6.70;99.90;;;6.60;100.00;100682.50;5160430;28;20149;-83
2022/12/30 03:55:18;;;;;;;4.18;0.80;;;6.80;99.90;;;6.57;100.00;100678.03;5159190;28;20057;-83
2022/12/30 03:57:50;;;;;;;6.60;1.60;;;6.70;99.90;;;6.55;100.00;100669.31;5176542;28;20056;-83
2022/12/30 04:00:23;;;;;;;6.43;1.50;;;6.70;99.90;;;6.57;100.00;100678.03;5158834;28;20057;-83
2022/12/30 04:02:55;;;;;;;5.50;1.20;;;6.80;99.90;;;6.53;100.00;100665.78;5176915;28;20054;-83
2022/12/30 04:05:27;;;;;;;4.25;1.02;;;6.80;99.90;;;6.62;100.00;100681.75;5177931;28;20050;-83
2022/12/30 04:08:00;;;;;;;7.60;1.50;;;6.80;99.90;;;6.61;100.00;100677.38;5176637;28;20054;-83
2022/12/30 04:10:32;;;;;;;7.55;1.75;;;6.80;99.90;;;6.59;100.00;100676.44;5178020;28;20062;-82
2022/12/30 04:13:04;;;;;;;3.15;1.08;;;6.80;99.90;;;6.59;100.00;100670.38;5176350;28;20050;-83
2022/12/30 04:15:38;;;;;;;7.20;1.58;;;6.80;99.90;;;6.59;100.00;100671.25;5161858;28;20057;-83
2022/12/30 04:18:10;;;;;;;8.98;1.15;;;6.80;99.90;;;6.61;100.00;100673.91;5177003;28;20054;-82
2022/12/30 04:20:43;;;;;;;6.63;1.75;;;6.80;99.90;;;6.63;100.00;100665.38;5178919;28;20066;-84
2022/12/30 04:23:16;;;;;;;7.72;2.78;;;6.80;99.90;;;6.60;100.00;100664.38;5177423;28;20145;-83
2022/12/30 04:25:48;;;;;;;11.55;4.30;;;6.80;99.90;;;6.55;100.00;100671.91;5176980;28;20054;-84
2022/12/30 04:28:20;;;;;;;6.32;2.72;;;6.80;99.90;;;6.58;100.00;100672.03;5175957;28;20047;-84
2022/12/30 04:30:52;;;;;;;5.40;2.42;;;6.80;99.90;;;6.58;100.00;100669.44;5177329;28;20795;-84
2022/12/30 04:33:24;;;;;;;6.72;2.35;;;6.80;99.90;;;6.62;100.00;100671.38;5161548;28;20054;-84
2022/12/30 04:35:57;;;;;;;6.75;1.73;;;6.80;99.90;;;6.64;100.00;100668.88;5160384;28;20046;-84
2022/12/30 04:38:30;;;;;;;3.83;1.38;;;6.80;99.90;;;6.63;100.00;100656.72;5227291;23;20056;-73
2022/12/30 04:41:02;;;;;;;3.67;1.52;;;6.80;99.90;;;6.64;100.00;100659.38;5206150;28;20117;-73
2022/12/30 04:43:35;;;;;;;7.43;1.75;;;6.80;99.90;;;6.64;100.00;100661.97;5206596;28;20325;-73
2022/12/30 04:46:07;;;;;;;6.63;1.80;;;6.80;99.90;;;6.62;100.00;100665.31;5206041;28;20045;-75
2022/12/30 04:48:40;;;;;;;5.97;1.52;;;6.90;99.90;;;6.63;100.00;100656.72;5205462;28;20524;-74
2022/12/30 04:51:12;;;;;;;6.97;1.50;;;6.80;99.90;;;6.65;100.00;100661.19;5204628;28;20045;-74
2022/12/30 04:53:45;;;;;;;6.95;1.50;;;6.80;99.90;;;6.67;100.00;100666.44;5206166;28;20120;-74
2022/12/30 04:56:18;;;;;;;7.00;1.73;;;6.90;99.90;;;6.65;100.00;100676.72;5204221;28;20045;-73
2022/12/30 04:58:50;;;;;;;8.50;1.35;;;6.90;99.90;;;6.66;100.00;100673.31;5204602;28;20049;-75
2022/12/30 05:01:23;;;;;;;2.35;1.00;;;6.90;99.90;;;6.61;100.00;100679.97;5204254;28;20502;-74
2022/12/30 05:03:55;;;;;;;3.42;1.38;;;6.80;99.90;;;6.60;100.00;100673.03;5204397;28;20041;-73
2022/12/30 05:06:27;;;;;;;4.53;1.58;;;6.80;99.90;;;6.58;100.00;100682.41;5205246;28;20041;-73
2022/12/30 05:09:00;;;;;;;5.68;1.38;;;6.80;99.90;;;6.52;100.00;100685.59;5204935;28;20053;-74
2022/12/30 05:11:33;;;;;;;5.50;1.38;;;6.70;99.90;;;6.51;100.00;100690.69;5205485;28;20041;-73
2022/12/30 05:14:05;;;;;;;2.95;1.23;;;6.70;99.90;;;6.51;100.00;100693.28;5204254;28;20041;-73
2022/12/30 05:16:37;;;;;;;9.05;1.25;;;6.70;99.90;;;6.47;100.00;100697.44;5205358;28;20051;-73
2022/12/30 05:19:09;;;;;;;4.80;1.63;;;6.70;99.90;;;6.45;100.00;100696.44;5205040;28;20048;-74
2022/12/30 05:21:41;;;;;;;5.50;1.13;;;6.70;99.90;;;6.41;100.00;100691.06;5205519;28;20042;-73
2022/12/30 05:27:04;;;;;;;9.95;1.60;;;6.60;99.90;;;6.38;100.00;100694.38;5204815;28;20045;-74
2022/12/30 05:29:36;;;;;;;4.70;2.05;;;6.60;99.90;;;6.38;100.00;100686.59;5205464;28;20045;-74
2022/12/30 05:32:08;;;;;;;2.25;1.20;;;6.70;99.90;;;6.40;100.00;100694.47;5204993;28;20041;-73
2022/12/30 05:34:40;;;;;;;4.50;1.35;;;6.60;99.90;;;6.41;100.00;100694.53;5205410;28;20390;-73
2022/12/30 05:37:12;;;;;;;6.80;1.70;;;6.70;99.90;;;6.39;100.00;100703.03;5205199;28;20056;-74
2022/12/30 05:39:46;;;;;;;6.43;1.90;;;6.60;99.90;;;6.42;100.00;100698.00;5203721;28;20054;-75
2022/12/30 05:42:18;;;;;;;7.93;2.65;;;6.70;99.90;;;6.41;100.00;100698.84;5203794;28;20064;-74
2022/12/30 05:44:50;;;;;;;7.65;1.55;;;6.70;99.90;;;6.39;100.00;100700.44;5204978;28;20051;-75
2022/12/30 05:47:22;;;;;;;5.72;1.60;;;6.60;99.90;;;6.37;100.00;100694.31;5204501;28;20146;-75
2022/12/30 05:49:54;;;;;;;5.63;1.83;;;6.60;99.90;;;6.36;100.00;100697.72;5205243;28;20051;-75
2022/12/30 05:52:27;;;;;;;2.42;1.42;;;6.60;99.90;;;6.34;100.00;100700.22;5204884;28;20045;-74
2022/12/30 05:55:01;;;;;;;4.63;1.40;;;6.60;99.90;;;6.39;100.00;100693.59;5204850;28;20049;-75
2022/12/30 05:57:33;;;;;;;7.55;1.70;;;6.60;99.90;;;6.39;100.00;100693.59;5203786;28;20046;-72
2022/12/30 06:00:07;;;;;;;10.30;2.00;;;6.60;99.90;;;6.37;100.00;100689.13;5204738;28;20056;-74
2022/12/30 06:02:39;;;;;;;7.05;1.73;;;6.60;99.90;;;6.36;100.00;100680.47;5204669;28;20034;-73
2022/12/30 06:05:12;;;;;;;3.45;1.33;;;6.60;99.90;;;6.35;100.00;100685.56;5203648;28;20045;-73
2022/12/30 06:07:44;;;;;;;8.25;1.65;;;6.60;99.90;;;6.34;100.00;100689.88;5204435;28;20052;-73
2022/12/30 06:10:17;;;;;;;5.05;1.92;;;6.60;99.90;;;6.33;100.00;100689.81;5204798;28;20060;-73
2022/12/30 06:12:49;;;;;;;6.50;1.95;;;6.50;99.90;;;6.31;100.00;100676.75;5204867;28;20060;-75
2022/12/30 06:15:21;;;;;;;8.95;2.28;;;6.60;99.90;;;6.30;100.00;100676.69;5204737;28;20521;-73
2022/12/30 06:17:53;;;;;;;4.78;1.60;;;6.50;99.90;;;6.32;100.00;100664.69;5204624;28;20437;-74
2022/12/30 06:20:25;;;;;;;8.38;2.70;;;6.50;99.90;;;6.29;100.00;100665.44;5208463;28;20037;-74
2022/12/30 06:22:57;;;;;;;7.25;2.17;;;6.50;99.90;;;6.30;100.00;100671.50;5208820;28;20052;-75
2022/12/30 06:25:32;;;;;;;7.22;2.05;;;6.50;99.90;;;6.33;100.00;100666.50;5208770;28;20285;-74
2022/12/30 06:28:05;;;;;;;9.40;3.42;;;6.50;99.90;;;6.28;100.00;100663.66;5208532;28;20045;-74
2022/12/30 06:30:37;;;;;;;8.82;3.85;;;6.50;99.90;;;6.22;100.00;100659.06;5208728;28;20112;-74
2022/12/30 06:33:09;;;;;;;9.68;3.08;;;6.50;99.90;;;6.21;100.00;100652.13;5208944;28;20124;-73
2022/12/30 06:35:41;;;;;;;10.55;3.25;;;6.50;99.90;;;6.20;100.00;100645.19;5207287;28;20050;-74
2022/12/30 06:38:14;;;;;;;8.32;2.33;;;6.50;99.90;;;6.15;100.00;100633.69;5208505;28;20574;-73
2022/12/30 06:40:48;;;;;;;4.32;1.73;;;6.50;99.90;;;6.17;100.00;100644.13;5207233;28;20146;-74
2022/12/30 06:43:20;;;;;;;6.13;1.52;;;6.40;99.90;;;6.18;100.00;100636.44;5208508;28;20409;-74
2022/12/30 06:45:52;;;;;;;6.72;2.00;;;6.40;99.90;;;6.18;100.00;100636.44;5208422;28;20049;-75
2022/12/30 06:48:24;;;;;;;5.10;1.40;;;6.40;99.90;;;6.19;100.00;100633.06;5207120;28;20138;-76
2022/12/30 06:51:00;;;;;;;7.35;1.15;;;6.50;99.90;;;6.21;100.00;100631.41;5208462;28;20049;-74
2022/12/30 06:53:32;;;;;;;3.08;1.25;;;6.50;99.90;;;6.22;100.00;100625.41;5208577;28;20042;-74
2022/12/30 06:56:07;;;;;;;4.38;1.45;;;6.50;99.90;;;6.24;100.00;100631.56;5208332;28;20049;-73
2022/12/30 06:58:39;;;;;;;4.72;1.38;;;6.50;99.90;;;6.25;100.00;100633.31;5208534;28;20044;-75
2022/12/30 07:01:11;;;;;;;4.43;1.33;;;6.50;99.90;;;6.25;100.00;100633.31;5208344;28;20405;-73
2022/12/30 07:03:43;;;;;;;5.82;1.23;;;6.50;99.90;;;6.31;100.00;100639.63;5207306;28;20071;-58
2022/12/30 07:06:15;;;;;;;8.43;1.50;;;6.50;99.90;;;6.30;100.00;100632.69;5207688;28;20049;-58
2022/12/30 07:08:47;;;;;;;5.78;1.38;;;6.50;99.90;;;6.35;100.00;100624.31;5207665;28;20045;-59
2022/12/30 07:11:21;;;;;;;4.43;1.02;;;6.60;99.90;;;6.39;100.00;100615.00;5207541;28;20076;-58
2022/12/30 07:13:53;;;;;;;10.50;2.08;;;6.60;99.90;;;6.43;100.00;100609.16;5207636;28;20409;-58
2022/12/30 07:16:25;;;;;;;4.75;1.13;;;6.70;99.90;;;6.43;100.00;100602.28;5207047;28;20060;-58
2022/12/30 07:18:57;;;;;;;5.00;1.17;;;6.70;99.90;;;6.47;100.00;100614.56;5206741;28;20096;-57
2022/12/30 07:21:29;;;;;;;4.57;0.95;;;6.70;99.90;;;6.48;100.00;100605.09;5207083;28;20057;-59
2022/12/30 07:24:01;;;;;;;5.28;1.15;;;6.70;99.90;;;6.50;100.00;100608.63;5207128;28;20136;-58
2022/12/30 07:26:35;;;;;;;4.10;1.35;;;6.70;99.90;;;6.55;100.00;100599.38;5206911;28;20049;-59
2022/12/30 07:29:07;;;;;;;2.75;1.08;;;6.80;99.90;;;6.57;100.00;100604.63;5207045;28;20052;-58
2022/12/30 07:31:39;;;;;;;3.13;0.90;;;6.80;99.90;;;6.60;100.00;100602.22;5204209;28;20071;-57
2022/12/30 07:34:11;;;;;;;6.95;1.52;;;6.80;99.90;;;6.62;100.00;100601.47;5206981;28;20041;-59
2022/12/30 07:36:43;;;;;;;6.03;1.20;;;6.80;99.90;;;6.66;100.00;100608.56;5206949;28;20494;-58
2022/12/30 07:39:15;;;;;;;4.80;1.25;;;6.90;99.90;;;6.69;100.00;100611.28;5207201;28;20439;-58
2022/12/30 07:41:49;;;;;;;5.07;1.55;;;6.90;99.90;;;6.73;100.00;100610.63;5207037;28;20033;-58
2022/12/30 07:44:21;;;;;;;4.57;1.40;;;6.90;99.90;;;6.77;100.00;100594.41;5206866;28;20406;-58
2022/12/30 07:46:53;;;;;;;5.32;1.65;;;7.00;99.90;;;6.82;100.00;100591.16;5207001;28;20037;-59
2022/12/30 07:49:26;;;;;;;6.13;1.67;;;7.00;99.90;;;6.85;100.00;100593.91;5205479;28;20049;-59
2022/12/30 07:51:58;;;;;;;7.47;1.40;;;7.00;99.90;;;6.88;100.00;100586.25;5206938;28;20723;-59
2022/12/30 07:54:30;;;;;;;6.20;1.35;;;7.10;99.90;;;6.91;100.00;100571.75;5206693;28;20046;-57
2022/12/30 07:57:03;;;;;;;4.63;1.35;;;7.10;99.90;;;6.92;100.00;100563.16;5206267;28;20494;-59
2022/12/30 07:59:35;;;;;;;4.18;1.25;;;7.10;99.90;;;6.90;100.00;100562.16;5206771;28;20491;-60
2022/12/30 08:02:11;;;;;;;3.33;1.13;;;7.10;99.90;;;6.92;100.00;100557.97;5207001;28;20056;-58
2022/12/30 08:04:43;;;;;;;8.68;1.65;;;7.10;99.90;;;6.94;100.00;100548.53;5206253;28;20521;-58
2022/12/30 08:07:16;;;;;;;6.70;2.13;;;7.20;99.90;;;7.02;100.00;100561.84;5206241;28;20045;-57
2022/12/30 08:09:48;;;;;;;5.43;1.40;;;7.20;99.90;;;7.10;100.00;100546.63;5205930;28;20490;-58
2022/12/30 08:12:22;;;;;;;7.97;1.27;;;7.20;99.90;;;7.17;100.00;100549.59;5206464;28;20061;-58
2022/12/30 08:14:54;;;;;;;6.13;1.50;;;7.30;99.90;;;7.28;100.00;100558.72;5205995;28;20048;-59
2022/12/30 08:17:28;;;;;;;4.57;1.30;;;7.40;99.90;;;7.38;100.00;100540.97;5205885;28;20049;-59
2022/12/30 08:20:00;;;;;;;5.13;1.48;;;7.50;99.90;;;7.46;100.00;100542.19;5205989;28;20132;-59
2022/12/30 08:22:33;;;;;;;4.57;1.50;;;7.60;99.90;;;7.55;100.00;100552.94;5206108;28;20042;-61
2022/12/30 08:25:06;;;;;;;9.30;1.35;;;7.70;99.90;;;7.61;100.00;100548.91;5206022;28;20057;-58
2022/12/30 08:27:40;;;;;;;3.95;1.25;;;7.70;99.90;;;7.70;100.00;100548.44;5205740;28;20045;-59
2022/12/30 08:30:13;;;;;;;3.65;1.08;;;7.80;99.90;;;7.78;100.00;100552.22;5205407;28;20046;-58
2022/12/30 08:32:45;;;;;;;6.07;1.55;;;7.90;99.90;;;7.83;100.00;100557.63;5204673;28;20509;-58
2022/12/30 08:35:17;;;;;;;4.75;1.38;;;7.90;99.90;;;7.86;100.00;100548.22;5205756;28;20128;-57
2022/12/30 08:37:50;;;;;;;3.53;1.20;;;8.00;99.90;;;7.93;100.00;100545.91;5205415;28;20138;-58
2022/12/30 08:40:22;;;;;;;4.95;1.23;;;8.10;99.90;;;7.93;100.00;100535.50;5205484;28;20049;-58
2022/12/30 08:42:55;;;;;;;3.30;1.10;;;8.10;99.90;;;7.99;100.00;100536.66;5205086;28;20128;-59
2022/12/30 08:45:27;;;;;;;5.65;2.03;;;8.10;99.90;;;8.02;100.00;100530.69;5205622;28;20048;-59
2022/12/30 08:48:00;;;;;;;4.05;0.95;;;8.20;99.90;;;8.06;100.00;100540.38;5205322;28;20056;-59
2022/12/30 08:50:32;;;;;;;2.15;1.13;;;8.20;99.90;;;8.14;100.00;100526.00;5205210;28;20049;-58
2022/12/30 08:53:04;;;;;;;5.05;1.15;;;8.20;99.90;;;8.18;100.00;100522.72;5205283;28;20087;-59
2022/12/30 08:55:36;;;;;;;4.28;1.10;;;8.30;99.90;;;8.23;100.00;100510.81;5204964;28;20270;-58
2022/12/30 08:58:10;;;;;;;6.05;1.20;;;8.30;99.90;;;8.30;100.00;100511.94;5203323;28;20055;-58
2022/12/30 09:00:42;;;;;;;5.65;1.20;;;8.40;99.90;;;8.31;100.00;100504.19;5205010;28;20049;-58
2022/12/30 09:03:14;;;;;;;2.65;1.00;;;8.40;99.90;;;8.38;100.00;100488.06;5205158;28;20045;-58
2022/12/30 09:05:51;;;;;;;5.43;1.08;;;8.50;99.90;;;8.45;100.00;100490.88;5204950;28;20045;-60
2022/12/30 09:08:24;;;;;;;8.57;1.33;;;8.60;99.90;;;8.51;100.00;100484.22;5205186;28;20107;-59
2022/12/30 09:11:01;;;;;;;1.33;0.60;;;8.60;99.90;;;8.60;100.00;100489.75;5205098;28;20084;-57
2022/12/30 09:13:36;;;;;;;5.15;0.75;;;8.70;99.90;;;8.62;100.00;100487.22;5204643;28;20056;-59
2022/12/30 09:16:11;;;;;;;3.53;1.15;;;8.70;99.90;;;8.65;100.00;100488.22;5205107;28;20506;-56
2022/12/30 09:18:43;;;;;;;4.53;0.95;;;8.70;99.90;;;8.70;100.00;100473.69;5204681;28;20048;-59
2022/12/30 09:21:15;;;;;;;6.47;1.40;;;8.80;99.90;;;8.76;100.00;100478.22;5204823;28;20530;-59
2022/12/30 09:23:48;;;;;;;4.05;0.90;;;8.90;99.90;;;8.82;100.00;100464.56;5204549;28;20048;-59
2022/12/30 09:26:22;;;;;;;3.92;1.10;;;8.90;99.90;;;8.87;100.00;100460.44;5204696;28;20523;-58
2022/12/30 09:28:56;;;;;;;4.00;1.10;;;9.00;99.90;;;8.91;100.00;100457.97;5204741;28;20037;-60
2022/12/30 09:31:29;;;;;;;8.15;1.50;;;9.00;99.90;;;9.01;100.00;100455.72;5204687;28;20046;-59
2022/12/30 09:34:01;;;;;;;1.90;0.80;;;9.00;99.90;;;9.07;100.00;100448.16;5204514;28;20049;-58
2022/12/30 09:36:33;;;;;;;2.60;1.02;;;9.10;99.90;;;9.10;100.00;100451.72;5204355;28;20060;-57
2022/12/30 09:39:05;;;;;;;3.53;0.90;;;9.20;99.90;;;9.18;100.00;100449.38;5204332;28;20052;-57
2022/12/30 09:45:15;;;;;;;4.20;0.85;;;9.30;99.90;;;9.27;100.00;100449.72;5204535;28;20045;-58
2022/12/30 09:47:51;;;;;;;3.00;0.95;;;9.30;99.90;;;9.34;100.00;100441.28;5203760;28;20521;-59
2022/12/30 09:50:37;;;;;;;8.80;1.13;;;9.40;99.90;;;9.36;100.00;100437.03;5204089;28;20044;-59
2022/12/30 09:53:17;;;;;;;4.80;0.98;;;9.40;99.90;;;9.38;100.00;100424.06;5203589;28;20411;-63
2022/12/30 09:55:55;;;;;;;5.10;1.30;;;9.50;99.90;;;9.44;100.00;100419.06;5203885;28;20041;-59
2022/12/30 09:58:31;;;;;;;4.03;0.98;;;9.40;99.90;;;9.50;100.00;100408.84;5203799;28;20049;-59
2022/12/30 10:01:18;;;;;;;2.97;0.73;;;9.50;99.90;;;9.58;100.00;100396.97;5203811;28;20053;-59
2022/12/30 10:03:53;;;;;;;2.30;0.98;;;9.60;99.90;;;9.56;100.00;100382.16;5203508;28;20418;-57
2022/12/30 10:06:32;;;;;;;3.55;0.80;;;9.60;99.90;;;9.57;100.00;100390.00;5201921;28;20457;-59
2022/12/30 10:09:40;;;;;;;5.95;1.30;;;9.60;99.90;;;9.62;100.00;100382.34;5182316;28;20095;-59
2022/12/30 10:12:34;;;;;;;4.53;1.23;;;9.60;99.90;;;9.65;100.00;100388.56;5203978;28;20048;-58
2022/12/30 10:15:27;;;;;;;1.98;1.05;;;9.70;99.90;;;9.73;100.00;100378.38;5204150;28;20048;-60
2022/12/30 10:18:28;;;;;;;3.50;1.00;;;9.80;99.90;;;9.77;100.00;100362.00;5202885;28;20045;-58
2022/12/30 10:21:20;;;;;;;4.70;1.10;;;9.80;99.90;;;9.89;100.00;100372.81;5203959;28;20132;-58
2022/12/30 10:24:11;;;;;;;7.28;1.83;;;9.90;99.90;;;10.02;100.00;100358.44;5204023;28;20124;-57
2022/12/30 10:26:47;;;;;;;4.15;1.10;;;10.00;99.90;;;9.99;100.00;100354.03;5203578;28;20136;-57
2022/12/30 10:29:27;;;;;;;3.50;1.30;;;10.00;99.90;;;9.93;100.00;100352.97;5203686;28;20046;-56
2022/12/30 10:32:09;;;;;;;1.60;0.93;;;10.00;99.90;;;9.91;100.00;100354.63;5203751;28;20115;-58
2022/12/30 10:34:43;;;;;;;3.72;1.05;;;10.00;99.90;;;9.92;100.00;100346.88;5204480;28;20053;-58
2022/12/30 10:37:22;;;;;;;4.07;1.23;;;10.00;99.90;;;9.90;100.00;100358.94;5203743;28;20055;-58
2022/12/30 10:39:54;;;;;;;4.15;1.23;;;9.90;99.90;;;9.92;100.00;100346.00;5284202;22;20055;-57
2022/12/30 10:42:51;;;;;;;5.07;1.30;;;10.00;99.90;;;9.90;100.00;100332.03;5206168;28;20055;-57
2022/12/30 10:45:42;;;;;;;5.03;1.23;;;9.90;99.90;;;9.90;100.00;100325.09;5224174;28;20052;-58
2022/12/30 10:48:43;;;;;;;4.47;1.13;;;10.00;99.90;;;9.95;100.00;100310.50;5203707;28;20045;-58
2022/12/30 10:51:19;;;;;;;2.20;1.10;;;10.00;99.90;;;9.97;100.00;100303.59;5202895;28;20453;-58
2022/12/30 10:53:53;;;;;;;5.20;1.10;;;10.00;99.90;;;9.95;100.00;100292.28;5202767;28;20054;-58
2022/12/30 10:56:28;;;;;;;6.32;2.00;;;10.00;99.90;;;10.03;100.00;100292.50;5203143;28;20049;-58
2022/12/30 10:59:04;;;;;;;4.95;1.27;;;10.10;99.90;;;10.15;100.00;100284.16;5203262;28;20057;-60
2022/12/30 11:01:37;;;;;;;3.13;1.15;;;10.20;99.90;;;10.21;100.00;100271.31;5203227;28;20057;-60
2022/12/30 11:04:34;;;;;;;4.45;1.40;;;10.20;99.90;;;10.24;100.00;100266.25;5203422;28;20050;-57
2022/12/30 11:07:11;;;;;;;3.67;1.23;;;10.30;99.90;;;10.14;100.00;100267.66;5206941;28;20056;-56
2022/12/30 11:09:44;;;;;;;3.65;1.50;;;10.20;99.90;;;9.99;100.00;100260.28;5207228;28;20041;-57
2022/12/30 11:15:24;;;;;;;4.88;1.20;;;10.10;99.90;;;10.02;100.00;100270.78;5206998;28;20091;-59
2022/12/30 11:17:58;;;;;;;3.78;1.33;;;10.10;99.90;;;10.04;100.00;100244.78;5206919;28;20045;-59
2022/12/30 11:20:34;;;;;;;2.83;1.50;;;10.10;99.90;;;9.90;100.00;100230.50;5207291;28;20043;-58
2022/12/30 11:23:30;;;;;;;4.10;1.25;;;10.00;99.90;;;10.00;100.00;100230.81;5189421;28;20056;-56
2022/12/30 11:26:05;;;;;;;1.92;0.88;;;10.20;99.90;;;10.15;100.00;100221.66;5207792;28;20103;-60
2022/12/30 11:28:44;;;;;;;2.45;1.10;;;10.20;99.90;;;10.30;100.00;100240.31;5207840;28;20042;-59
2022/12/30 11:31:18;;;;;;;3.65;1.08;;;10.30;99.90;;;10.31;100.00;100219.56;5206686;28;20052;-58
2022/12/30 11:33:54;;;;;;;3.72;1.20;;;10.40;99.90;;;10.20;100.00;100209.66;5188651;28;20418;-59
2022/12/30 11:36:35;;;;;;;3.60;1.10;;;10.30;99.90;;;10.03;100.00;100189.22;5206837;28;20397;-59
2022/12/30 11:39:26;;;;;;;;;;;10.20;99.90;;;10.00;100.00;100207.38;5206581;28;20045;-58
2022/12/30 11:42:01;;;;;;;7.28;1.80;;;10.10;99.90;;;9.95;100.00;100201.16;5206043;28;19921;-57
2022/12/30 11:44:34;;;;;;;4.28;1.17;;;10.10;99.90;;;9.93;100.00;100197.63;5206322;28;20049;-58
2022/12/30 11:47:09;;;;;;;1.88;1.30;;;10.10;99.90;;;9.89;100.00;100200.97;5206094;28;20046;-59
2022/12/30 11:49:48;;;;;;;2.47;1.23;;;10.00;99.90;;;9.91;100.00;100188.00;5206198;28;20048;-59
2022/12/30 11:52:24;;;;;;;3.63;1.15;;;10.00;99.90;;;9.91;100.00;100188.00;5206274;28;20053;-58
2022/12/30 11:55:02;;;;;;;3.47;1.00;;;10.00;99.90;;;9.88;100.00;100188.81;5188754;28;20068;-58